Saturday, September 22, 2018, 10:48 PM EDT
Back to Local

K1P1, Plymouth, Plymouth Municipal Airport

Location: Plymouth, NH, United States Lat: 43.779
Local Time: 10:48 PM EDT ( 2:48 GMT) Lon: -71.754
Time Zone: US/Eastern Elev: 505 ft

Show me the last for .
Show Decoded

2018-09-22 22:35 METAR K1P1 230235Z AUTO 00000KT 10SM CLR 08/05 A3024 RMK AO2 T00750052 =
2018-09-22 22:15 METAR K1P1 230215Z AUTO 32003KT 10SM CLR 08/06 A3024 RMK AO2 T00770055 =
2018-09-22 21:55 METAR K1P1 230155Z AUTO 00000KT 10SM CLR 07/06 A3024 RMK AO2 T00700060 =
2018-09-22 21:35 METAR K1P1 230135Z AUTO 00000KT 10SM CLR 07/06 A3023 RMK AO2 T00710061 =
2018-09-22 21:15 METAR K1P1 230115Z AUTO 00000KT 10SM CLR 07/06 A3023 RMK AO2 T00730060 =
2018-09-22 20:55 METAR K1P1 230055Z AUTO 00000KT 10SM CLR 08/06 A3023 RMK AO2 T00790060 =
2018-09-22 20:35 METAR K1P1 230035Z AUTO 00000KT 10SM CLR 08/06 A3022 RMK AO2 T00830062 =
2018-09-22 20:15 METAR K1P1 230015Z AUTO 00000KT 10SM CLR 09/06 A3021 RMK AO2 T00920058 =
2018-09-22 19:55 METAR K1P1 222355Z AUTO 27003KT 10SM CLR 10/06 A3021 RMK AO2 T00970060 10160
                 20094 =
2018-09-22 19:35 METAR K1P1 222335Z AUTO 00000KT 10SM CLR 10/07 A3020 RMK AO2 T01000068 =
2018-09-22 19:15 METAR K1P1 222315Z AUTO 00000KT 10SM CLR 11/06 A3020 RMK AO2 T01100060 =
2018-09-22 18:55 METAR K1P1 222255Z AUTO 28003KT 10SM CLR 12/06 A3019 RMK AO2 T01150063 =
2018-09-22 18:35 METAR K1P1 222235Z AUTO 00000KT 10SM CLR 13/05 A3018 RMK AO2 T01250054 =
2018-09-22 18:15 METAR K1P1 222215Z AUTO 28004KT 10SM CLR 14/05 A3017 RMK AO2 T01360046 =
2018-09-22 17:55 METAR K1P1 222155Z AUTO 31004KT 10SM CLR 14/05 A3017 RMK AO2 T01400048 =
2018-09-22 17:35 METAR K1P1 222135Z AUTO 29004KT 10SM CLR 15/05 A3016 RMK AO2 T01450045 =
2018-09-22 17:15 METAR K1P1 222115Z AUTO 30006KT 10SM CLR 15/04 A3015 RMK AO2 T01470042 =
2018-09-22 16:55 METAR K1P1 222055Z AUTO 30006KT 10SM CLR 15/04 A3015 RMK AO2 T01530041 =
2018-09-22 16:35 METAR K1P1 222035Z AUTO 31006KT 10SM CLR 16/04 A3015 RMK AO2 T01570039 =
2018-09-22 16:15 METAR K1P1 222015Z AUTO 31006KT 10SM CLR 15/04 A3015 RMK AO2 T01530035 =
2018-09-22 15:55 METAR K1P1 221955Z AUTO 31010G15KT 10SM CLR 16/03 A3015 RMK AO2 T01570027 =
2018-09-22 15:35 METAR K1P1 221935Z AUTO 28007KT 10SM CLR 15/04 A3014 RMK AO2 T01530041 =
2018-09-22 15:15 METAR K1P1 221915Z AUTO 29009KT 10SM CLR 15/04 A3014 RMK AO2 T01530039 =
2018-09-22 14:55 METAR K1P1 221855Z AUTO 28006KT 10SM CLR 15/04 A3015 RMK AO2 T01500038 =
2018-09-22 14:35 METAR K1P1 221835Z AUTO 32006KT 10SM CLR 15/04 A3015 RMK AO2 T01500040 =
2018-09-22 14:15 METAR K1P1 221815Z AUTO 31005G14KT 10SM CLR 15/05 A3015 RMK AO2 T01530046 =
2018-09-22 13:55 METAR K1P1 221755Z AUTO 30010G15KT 10SM CLR 16/04 A3015 RMK AO2 T01570042 10165
                 20141 =
2018-09-22 13:35 METAR K1P1 221735Z AUTO 29008G16KT 10SM CLR 16/05 A3014 RMK AO2 T01580048 =
2018-09-22 13:15 METAR K1P1 221715Z AUTO 30010G19KT 10SM CLR 16/04 A3014 RMK AO2 T01630044 =
2018-09-22 12:55 METAR K1P1 221655Z AUTO 31008G14KT 10SM CLR 16/05 A3014 RMK AO2 T01610052 =
2018-09-22 12:35 METAR K1P1 221635Z AUTO 30005KT 10SM CLR 16/06 A3014 RMK AO2 T01560056 =
2018-09-22 12:15 METAR K1P1 221615Z AUTO 33009G17KT 10SM CLR 15/05 A3014 RMK AO2 T01490046 =
2018-09-22 11:55 METAR K1P1 221555Z AUTO 33011G16KT 10SM CLR 15/06 A3013 RMK AO2 T01530055 =
2018-09-22 11:35 METAR K1P1 221535Z AUTO 28009G17KT 230V320 10SM CLR 15/06 A3013 RMK AO2
                 T01500059 =
2018-09-22 11:15 METAR K1P1 221515Z AUTO 31010G18KT 10SM CLR 15/06 A3013 RMK AO2 T01480064 =
2018-09-22 10:55 METAR K1P1 221455Z AUTO 30012G19KT 10SM CLR 15/08 A3011 RMK AO2 T01500075 =
2018-09-22 10:35 METAR K1P1 221435Z AUTO 29012G20KT 10SM CLR 15/08 A3011 RMK AO2 T01510075 =
2018-09-22 10:15 METAR K1P1 221415Z AUTO 30013G25KT 10SM SCT034 SCT042 14/08 A3010 RMK AO2
                 T01440076 =
2018-09-22 09:55 METAR K1P1 221355Z AUTO 31016G24KT 10SM BKN034 BKN046 15/08 A3009 RMK AO2
                 T01530075 =
2018-09-22 09:35 METAR K1P1 221335Z AUTO 28010G18KT 10SM BKN048 BKN055 15/07 A3008 RMK AO2
                 T01470068 =
2018-09-22 09:15 METAR K1P1 221315Z AUTO 31008G17KT 10SM BKN044 OVC050 15/07 A3007 RMK AO2
                 T01500070 =
2018-09-22 08:55 METAR K1P1 221255Z AUTO 31011G17KT 280V340 10SM BKN043 OVC050 16/08 A3005 RMK
                 AO2 T01550075 =
2018-09-22 08:35 METAR K1P1 221235Z AUTO 31009G15KT 280V360 10SM BKN043 16/07 A3003 RMK AO2
                 T01580073 =
2018-09-22 08:15 METAR K1P1 221215Z AUTO 31008G15KT 10SM SCT043 BKN049 BKN060 16/07 A3002 RMK AO2
                 T01560067 =
2018-09-22 07:55 METAR K1P1 221155Z AUTO 00000KT 10SM SCT045 BKN060 16/06 A3000 RMK AO2 60011
                 70012 T01600063 10211 20155 =
2018-09-22 07:35 METAR K1P1 221135Z AUTO 33006G25KT 10SM CLR 16/06 A2997 RMK AO2 T01550060 =
2018-09-22 07:15 METAR K1P1 221115Z AUTO 30016G26KT 10SM CLR 16/07 A2995 RMK AO2 T01610070 =
2018-09-22 06:55 METAR K1P1 221055Z AUTO 31012G19KT 290V350 10SM CLR 17/10 A2993 RMK AO2
                 T01650096 =
2018-09-22 06:35 METAR K1P1 221035Z AUTO 32011G15KT 10SM CLR 17/10 A2990 RMK AO2 T01700103 =
2018-09-22 06:15 METAR K1P1 221015Z AUTO 30006KT 10SM SCT060 17/11 A2989 RMK AO2 T01710109 =
2018-09-22 05:55 METAR K1P1 220955Z AUTO 31008G21KT 10SM SCT045 BKN060 18/12 A2988 RMK AO2
                 T01770120 =
2018-09-22 05:35 METAR K1P1 220935Z AUTO 29003KT 10SM SCT038 SCT047 SCT050 18/13 A2985 RMK AO2
                 T01760127 =
2018-09-22 05:15 METAR K1P1 220915Z AUTO 26004KT 10SM CLR 18/13 A2982 RMK AO2 T01820132 =
2018-09-22 04:55 METAR K1P1 220855Z AUTO 28005KT 10SM SCT027 SCT047 SCT060 18/15 A2982 RMK AO2
                 P0004 60011 T01830149 =
2018-09-22 04:35 METAR K1P1 220835Z AUTO 27004KT 7SM -RA SCT025 BKN043 OVC085 19/17 A2981 RMK AO2
                 P0004 T01850172 =
2018-09-22 04:15 METAR K1P1 220815Z AUTO 00000KT 10SM SCT039 SCT050 BKN080 18/17 A2979 RMK AO2
                 T01810171 =
2018-09-22 03:55 METAR K1P1 220755Z AUTO 00000KT 5SM BR SCT039 SCT045 18/17 A2978 RMK AO2
                 T01750165 =
2018-09-22 03:35 METAR K1P1 220735Z AUTO 00000KT 7SM SCT040 SCT045 SCT060 18/17 A2977 RMK AO2
                 T01810170 =
2018-09-22 03:15 METAR K1P1 220715Z AUTO 00000KT 10SM SCT021 SCT026 BKN046 19/17 A2977 RMK AO2
                 T01870174 =
2018-09-22 02:55 METAR K1P1 220655Z AUTO 00000KT 7SM SCT021 SCT025 BKN035 19/17 A2978 RMK AO2
                 P0007 T01870173 =
2018-09-22 02:35 METAR K1P1 220635Z AUTO 00000KT 7SM -RA SCT020 BKN042 OVC055 19/18 A2978 RMK AO2
                 P0006 T01930175 =
2018-09-22 02:15 METAR K1P1 220615Z AUTO 32005KT 7SM RA SCT018 BKN037 OVC055 20/18 A2978 RMK AO2
                 P0006 T02010176 =
2018-09-22 01:55 METAR K1P1 220555Z AUTO 23005KT 10SM -DZ SCT023 BKN033 OVC055 21/17 A2978 RMK
                 AO2 T02110171 10213 20163 =
2018-09-22 01:35 METAR K1P1 220535Z AUTO 19008KT 180V240 10SM BKN025 OVC034 21/17 A2978 RMK AO2
                 T02070170 =
2018-09-22 01:15 METAR K1P1 220515Z AUTO 00000KT 10SM BKN027 OVC036 19/16 A2978 RMK AO2 T01900164
                 =
2018-09-22 00:55 METAR K1P1 220455Z AUTO 00000KT 10SM -RA BKN023 BKN029 OVC037 20/17 A2977 RMK
                 AO2 T02000165 =
2018-09-22 00:35 METAR K1P1 220435Z AUTO 09003KT 10SM BKN023 BKN030 OVC039 20/17 A2978 RMK AO2
                 T02000165 =
2018-09-22 00:15 METAR K1P1 220415Z AUTO 00000KT 10SM OVC023 20/16 A2979 RMK AO2 T01970163 =
2018-09-21 23:55 METAR K1P1 220355Z AUTO 14003KT 10SM OVC021 19/16 A2981 RMK AO2 T01910159
                 401910137 =
2018-09-21 23:35 METAR K1P1 220335Z AUTO 00000KT 10SM OVC021 19/16 A2982 RMK AO2 T01870156 =
2018-09-21 23:15 METAR K1P1 220315Z AUTO 00000KT 10SM OVC019 19/16 A2984 RMK AO2 T01870155 =
2018-09-21 22:55 METAR K1P1 220255Z AUTO 00000KT 10SM OVC019 19/15 A2985 RMK AO2 T01870153 =

Support USWX by starting your Amazon purchase here.